sensor_id;sensor_type;location;lat;lon;timestamp;P1;durP1;ratioP1;P2;durP2;ratioP2
11598;SDS011;5855;48.840;9.188;2023-05-23T00:00:01;32.50;;;27.63;;
11598;SDS011;5855;48.840;9.188;2023-05-23T00:02:29;36.97;;;28.60;;
11598;SDS011;5855;48.840;9.188;2023-05-23T00:04:57;37.28;;;28.35;;
11598;SDS011;5855;48.840;9.188;2023-05-23T00:07:27;35.63;;;29.10;;
11598;SDS011;5855;48.840;9.188;2023-05-23T00:09:56;39.42;;;29.63;;
11598;SDS011;5855;48.840;9.188;2023-05-23T00:12:23;43.17;;;31.90;;
11598;SDS011;5855;48.840;9.188;2023-05-23T00:14:50;46.97;;;33.08;;
11598;SDS011;5855;48.840;9.188;2023-05-23T00:17:17;44.72;;;32.95;;
11598;SDS011;5855;48.840;9.188;2023-05-23T00:19:45;48.05;;;34.22;;
11598;SDS011;5855;48.840;9.188;2023-05-23T00:22:14;44.70;;;33.50;;
11598;SDS011;5855;48.840;9.188;2023-05-23T00:24:41;48.20;;;35.10;;
11598;SDS011;5855;48.840;9.188;2023-05-23T00:27:09;48.80;;;35.50;;
11598;SDS011;5855;48.840;9.188;2023-05-23T00:29:35;47.08;;;34.15;;
11598;SDS011;5855;48.840;9.188;2023-05-23T00:32:02;48.65;;;35.35;;
11598;SDS011;5855;48.840;9.188;2023-05-23T00:34:29;48.40;;;35.22;;
11598;SDS011;5855;48.840;9.188;2023-05-23T00:36:56;50.47;;;35.45;;
11598;SDS011;5855;48.840;9.188;2023-05-23T00:39:25;48.78;;;35.60;;
11598;SDS011;5855;48.840;9.188;2023-05-23T00:41:51;52.25;;;36.85;;
11598;SDS011;5855;48.840;9.188;2023-05-23T00:44:18;49.30;;;36.95;;
11598;SDS011;5855;48.840;9.188;2023-05-23T00:46:46;50.97;;;37.85;;
11598;SDS011;5855;48.840;9.188;2023-05-23T00:49:17;51.00;;;38.38;;
11598;SDS011;5855;48.840;9.188;2023-05-23T00:51:44;48.33;;;36.15;;
11598;SDS011;5855;48.840;9.188;2023-05-23T00:54:13;51.65;;;37.75;;
11598;SDS011;5855;48.840;9.188;2023-05-23T00:56:43;60.72;;;41.00;;
11598;SDS011;5855;48.840;9.188;2023-05-23T00:59:10;57.97;;;40.67;;
11598;SDS011;5855;48.840;9.188;2023-05-23T01:01:38;61.17;;;41.17;;
11598;SDS011;5855;48.840;9.188;2023-05-23T01:04:06;58.42;;;42.72;;
11598;SDS011;5855;48.840;9.188;2023-05-23T01:06:33;62.38;;;41.85;;
11598;SDS011;5855;48.840;9.188;2023-05-23T01:09:00;62.03;;;42.60;;
11598;SDS011;5855;48.840;9.188;2023-05-23T01:11:29;59.78;;;42.03;;
11598;SDS011;5855;48.840;9.188;2023-05-23T01:14:03;61.88;;;44.13;;
11598;SDS011;5855;48.840;9.188;2023-05-23T01:16:37;64.32;;;42.72;;
11598;SDS011;5855;48.840;9.188;2023-05-23T01:19:16;71.65;;;47.05;;
11598;SDS011;5855;48.840;9.188;2023-05-23T01:22:15;71.13;;;45.15;;
11598;SDS011;5855;48.840;9.188;2023-05-23T01:24:51;67.90;;;46.97;;
11598;SDS011;5855;48.840;9.188;2023-05-23T01:27:22;69.40;;;46.95;;
11598;SDS011;5855;48.840;9.188;2023-05-23T01:29:59;62.85;;;45.00;;
11598;SDS011;5855;48.840;9.188;2023-05-23T01:32:28;70.25;;;46.92;;
11598;SDS011;5855;48.840;9.188;2023-05-23T01:34:57;67.45;;;46.70;;
11598;SDS011;5855;48.840;9.188;2023-05-23T01:37:25;66.07;;;46.20;;
11598;SDS011;5855;48.840;9.188;2023-05-23T01:39:53;65.25;;;46.08;;
11598;SDS011;5855;48.840;9.188;2023-05-23T01:42:20;69.93;;;47.42;;
11598;SDS011;5855;48.840;9.188;2023-05-23T01:44:47;69.20;;;48.63;;
11598;SDS011;5855;48.840;9.188;2023-05-23T01:47:15;69.38;;;48.80;;
11598;SDS011;5855;48.840;9.188;2023-05-23T01:49:43;71.05;;;50.40;;
11598;SDS011;5855;48.840;9.188;2023-05-23T01:52:10;69.35;;;48.53;;
11598;SDS011;5855;48.840;9.188;2023-05-23T01:54:39;70.43;;;50.00;;
11598;SDS011;5855;48.840;9.188;2023-05-23T01:57:07;69.03;;;48.13;;
11598;SDS011;5855;48.840;9.188;2023-05-23T01:59:35;74.22;;;52.83;;
11598;SDS011;5855;48.840;9.188;2023-05-23T02:02:03;73.07;;;51.25;;
11598;SDS011;5855;48.840;9.188;2023-05-23T02:04:31;73.60;;;51.58;;
11598;SDS011;5855;48.840;9.188;2023-05-23T02:06:58;73.43;;;50.83;;
11598;SDS011;5855;48.840;9.188;2023-05-23T02:09:25;69.43;;;49.45;;
11598;SDS011;5855;48.840;9.188;2023-05-23T02:11:51;73.45;;;52.08;;
11598;SDS011;5855;48.840;9.188;2023-05-23T02:14:19;74.10;;;53.25;;
11598;SDS011;5855;48.840;9.188;2023-05-23T02:16:46;77.53;;;52.85;;
11598;SDS011;5855;48.840;9.188;2023-05-23T02:19:13;70.72;;;50.33;;
11598;SDS011;5855;48.840;9.188;2023-05-23T02:21:41;74.28;;;52.17;;
11598;SDS011;5855;48.840;9.188;2023-05-23T02:24:08;74.90;;;53.17;;
11598;SDS011;5855;48.840;9.188;2023-05-23T02:26:35;74.30;;;52.08;;
11598;SDS011;5855;48.840;9.188;2023-05-23T02:29:02;71.10;;;52.78;;
11598;SDS011;5855;48.840;9.188;2023-05-23T02:31:29;78.80;;;54.17;;
11598;SDS011;5855;48.840;9.188;2023-05-23T02:33:56;78.45;;;52.83;;
11598;SDS011;5855;48.840;9.188;2023-05-23T02:36:23;77.78;;;53.55;;
11598;SDS011;5855;48.840;9.188;2023-05-23T02:38:52;75.75;;;52.42;;
11598;SDS011;5855;48.840;9.188;2023-05-23T02:41:18;68.65;;;51.60;;
11598;SDS011;5855;48.840;9.188;2023-05-23T02:43:45;73.38;;;52.97;;
11598;SDS011;5855;48.840;9.188;2023-05-23T02:46:12;70.70;;;51.40;;
11598;SDS011;5855;48.840;9.188;2023-05-23T02:48:39;69.50;;;52.22;;
11598;SDS011;5855;48.840;9.188;2023-05-23T02:51:06;76.15;;;52.42;;
11598;SDS011;5855;48.840;9.188;2023-05-23T02:53:33;71.72;;;53.03;;
11598;SDS011;5855;48.840;9.188;2023-05-23T02:56:01;69.07;;;52.38;;
11598;SDS011;5855;48.840;9.188;2023-05-23T02:58:28;68.80;;;52.53;;
11598;SDS011;5855;48.840;9.188;2023-05-23T03:04:19;69.28;;;51.55;;
11598;SDS011;5855;48.840;9.188;2023-05-23T03:06:46;65.38;;;50.97;;
11598;SDS011;5855;48.840;9.188;2023-05-23T03:09:13;67.65;;;50.00;;
11598;SDS011;5855;48.840;9.188;2023-05-23T03:11:43;69.57;;;50.92;;
11598;SDS011;5855;48.840;9.188;2023-05-23T03:14:10;71.82;;;52.20;;
11598;SDS011;5855;48.840;9.188;2023-05-23T03:16:36;65.00;;;48.85;;
11598;SDS011;5855;48.840;9.188;2023-05-23T03:19:03;62.35;;;49.63;;
11598;SDS011;5855;48.840;9.188;2023-05-23T03:21:30;63.03;;;50.45;;
11598;SDS011;5855;48.840;9.188;2023-05-23T03:24:00;63.45;;;49.05;;
11598;SDS011;5855;48.840;9.188;2023-05-23T03:26:27;66.03;;;50.00;;
11598;SDS011;5855;48.840;9.188;2023-05-23T03:28:56;65.10;;;48.35;;
11598;SDS011;5855;48.840;9.188;2023-05-23T03:31:22;67.75;;;49.05;;
11598;SDS011;5855;48.840;9.188;2023-05-23T03:33:49;62.45;;;47.72;;
11598;SDS011;5855;48.840;9.188;2023-05-23T03:36:17;61.88;;;47.83;;
11598;SDS011;5855;48.840;9.188;2023-05-23T03:38:45;61.97;;;46.63;;
11598;SDS011;5855;48.840;9.188;2023-05-23T03:41:12;57.92;;;45.25;;
11598;SDS011;5855;48.840;9.188;2023-05-23T03:43:39;60.15;;;45.03;;
11598;SDS011;5855;48.840;9.188;2023-05-23T03:46:07;62.95;;;47.88;;
11598;SDS011;5855;48.840;9.188;2023-05-23T03:48:34;60.88;;;46.53;;
11598;SDS011;5855;48.840;9.188;2023-05-23T03:51:01;66.07;;;48.45;;
11598;SDS011;5855;48.840;9.188;2023-05-23T03:53:28;58.42;;;45.85;;
11598;SDS011;5855;48.840;9.188;2023-05-23T03:55:55;61.50;;;47.05;;
11598;SDS011;5855;48.840;9.188;2023-05-23T03:58:21;58.00;;;45.30;;
11598;SDS011;5855;48.840;9.188;2023-05-23T04:00:48;59.22;;;46.70;;
11598;SDS011;5855;48.840;9.188;2023-05-23T04:03:18;58.08;;;46.05;;
11598;SDS011;5855;48.840;9.188;2023-05-23T04:05:45;57.17;;;45.92;;
11598;SDS011;5855;48.840;9.188;2023-05-23T04:08:12;55.75;;;43.63;;
11598;SDS011;5855;48.840;9.188;2023-05-23T04:10:39;55.67;;;43.53;;
11598;SDS011;5855;48.840;9.188;2023-05-23T04:13:06;52.95;;;42.25;;
11598;SDS011;5855;48.840;9.188;2023-05-23T04:15:33;53.85;;;44.50;;
11598;SDS011;5855;48.840;9.188;2023-05-23T04:18:00;53.45;;;43.10;;
11598;SDS011;5855;48.840;9.188;2023-05-23T04:20:29;51.95;;;44.50;;
11598;SDS011;5855;48.840;9.188;2023-05-23T04:22:56;50.63;;;41.90;;
11598;SDS011;5855;48.840;9.188;2023-05-23T04:25:22;50.28;;;41.17;;
11598;SDS011;5855;48.840;9.188;2023-05-23T04:27:50;48.08;;;41.53;;
11598;SDS011;5855;48.840;9.188;2023-05-23T04:30:18;51.83;;;41.30;;
11598;SDS011;5855;48.840;9.188;2023-05-23T04:32:45;56.75;;;44.20;;
11598;SDS011;5855;48.840;9.188;2023-05-23T04:35:12;49.22;;;40.53;;
11598;SDS011;5855;48.840;9.188;2023-05-23T04:37:40;48.90;;;42.35;;
11598;SDS011;5855;48.840;9.188;2023-05-23T04:40:09;49.30;;;41.20;;
11598;SDS011;5855;48.840;9.188;2023-05-23T04:42:38;48.50;;;40.72;;
11598;SDS011;5855;48.840;9.188;2023-05-23T04:45:06;46.40;;;41.13;;
11598;SDS011;5855;48.840;9.188;2023-05-23T04:47:35;48.55;;;40.60;;
11598;SDS011;5855;48.840;9.188;2023-05-23T04:50:02;46.72;;;39.70;;
11598;SDS011;5855;48.840;9.188;2023-05-23T04:52:29;47.22;;;40.58;;
11598;SDS011;5855;48.840;9.188;2023-05-23T04:54:59;52.38;;;42.63;;
11598;SDS011;5855;48.840;9.188;2023-05-23T04:57:26;50.58;;;41.53;;
11598;SDS011;5855;48.840;9.188;2023-05-23T04:59:55;47.35;;;38.85;;
11598;SDS011;5855;48.840;9.188;2023-05-23T05:02:22;48.17;;;40.85;;
11598;SDS011;5855;48.840;9.188;2023-05-23T05:04:51;46.30;;;37.30;;
11598;SDS011;5855;48.840;9.188;2023-05-23T05:07:17;48.00;;;39.58;;
11598;SDS011;5855;48.840;9.188;2023-05-23T05:09:44;43.65;;;38.85;;
11598;SDS011;5855;48.840;9.188;2023-05-23T05:12:13;42.45;;;37.78;;
11598;SDS011;5855;48.840;9.188;2023-05-23T05:14:39;43.05;;;38.05;;
11598;SDS011;5855;48.840;9.188;2023-05-23T05:17:06;44.50;;;38.42;;
11598;SDS011;5855;48.840;9.188;2023-05-23T05:19:33;44.88;;;40.10;;
11598;SDS011;5855;48.840;9.188;2023-05-23T05:22:00;42.10;;;36.97;;
11598;SDS011;5855;48.840;9.188;2023-05-23T05:24:27;46.58;;;38.58;;
11598;SDS011;5855;48.840;9.188;2023-05-23T05:26:54;42.40;;;36.78;;
11598;SDS011;5855;48.840;9.188;2023-05-23T05:29:22;43.30;;;37.45;;
11598;SDS011;5855;48.840;9.188;2023-05-23T05:31:51;49.28;;;38.05;;
11598;SDS011;5855;48.840;9.188;2023-05-23T05:34:17;43.63;;;36.72;;
11598;SDS011;5855;48.840;9.188;2023-05-23T05:36:44;41.78;;;36.97;;
11598;SDS011;5855;48.840;9.188;2023-05-23T05:39:12;44.10;;;37.83;;
11598;SDS011;5855;48.840;9.188;2023-05-23T05:41:39;43.65;;;37.53;;
11598;SDS011;5855;48.840;9.188;2023-05-23T05:44:07;40.30;;;35.85;;
11598;SDS011;5855;48.840;9.188;2023-05-23T05:46:35;42.13;;;37.50;;
11598;SDS011;5855;48.840;9.188;2023-05-23T05:49:02;40.58;;;36.28;;
11598;SDS011;5855;48.840;9.188;2023-05-23T05:51:29;41.83;;;36.55;;
11598;SDS011;5855;48.840;9.188;2023-05-23T05:53:56;39.08;;;34.85;;
11598;SDS011;5855;48.840;9.188;2023-05-23T05:56:23;42.42;;;36.50;;
11598;SDS011;5855;48.840;9.188;2023-05-23T05:58:50;43.60;;;35.50;;
11598;SDS011;5855;48.840;9.188;2023-05-23T06:01:17;40.13;;;35.05;;
11598;SDS011;5855;48.840;9.188;2023-05-23T06:03:45;39.92;;;35.58;;
11598;SDS011;5855;48.840;9.188;2023-05-23T06:06:12;38.22;;;34.10;;
11598;SDS011;5855;48.840;9.188;2023-05-23T06:08:40;38.67;;;34.50;;
11598;SDS011;5855;48.840;9.188;2023-05-23T06:11:08;37.90;;;32.88;;
11598;SDS011;5855;48.840;9.188;2023-05-23T06:13:36;39.58;;;33.88;;
11598;SDS011;5855;48.840;9.188;2023-05-23T06:16:03;37.58;;;33.70;;
11598;SDS011;5855;48.840;9.188;2023-05-23T06:18:30;43.72;;;34.65;;
11598;SDS011;5855;48.840;9.188;2023-05-23T06:20:58;38.97;;;34.95;;
11598;SDS011;5855;48.840;9.188;2023-05-23T06:23:25;39.45;;;35.28;;
11598;SDS011;5855;48.840;9.188;2023-05-23T06:25:52;40.58;;;36.15;;
11598;SDS011;5855;48.840;9.188;2023-05-23T06:28:19;39.38;;;35.30;;
11598;SDS011;5855;48.840;9.188;2023-05-23T06:30:46;41.60;;;37.33;;
11598;SDS011;5855;48.840;9.188;2023-05-23T06:33:12;39.50;;;35.50;;
11598;SDS011;5855;48.840;9.188;2023-05-23T06:35:40;40.03;;;34.92;;
11598;SDS011;5855;48.840;9.188;2023-05-23T06:38:08;38.22;;;34.35;;
11598;SDS011;5855;48.840;9.188;2023-05-23T06:40:35;40.35;;;35.10;;
11598;SDS011;5855;48.840;9.188;2023-05-23T06:43:02;38.78;;;34.58;;
11598;SDS011;5855;48.840;9.188;2023-05-23T06:45:28;40.15;;;35.53;;
11598;SDS011;5855;48.840;9.188;2023-05-23T06:47:55;44.67;;;38.28;;
11598;SDS011;5855;48.840;9.188;2023-05-23T06:50:24;39.17;;;35.17;;
11598;SDS011;5855;48.840;9.188;2023-05-23T06:52:50;38.30;;;34.22;;
11598;SDS011;5855;48.840;9.188;2023-05-23T06:55:18;39.38;;;35.28;;
11598;SDS011;5855;48.840;9.188;2023-05-23T06:57:45;38.33;;;34.20;;
11598;SDS011;5855;48.840;9.188;2023-05-23T07:00:16;41.95;;;37.38;;
11598;SDS011;5855;48.840;9.188;2023-05-23T07:02:43;39.97;;;35.65;;
11598;SDS011;5855;48.840;9.188;2023-05-23T07:05:12;38.05;;;33.97;;
11598;SDS011;5855;48.840;9.188;2023-05-23T07:07:39;38.20;;;34.40;;
11598;SDS011;5855;48.840;9.188;2023-05-23T07:10:07;33.30;;;29.95;;
11598;SDS011;5855;48.840;9.188;2023-05-23T07:12:36;31.00;;;27.50;;
11598;SDS011;5855;48.840;9.188;2023-05-23T07:15:03;30.48;;;27.08;;
11598;SDS011;5855;48.840;9.188;2023-05-23T07:17:30;29.83;;;25.55;;
11598;SDS011;5855;48.840;9.188;2023-05-23T07:19:57;26.70;;;23.90;;
11598;SDS011;5855;48.840;9.188;2023-05-23T07:22:23;25.08;;;22.58;;
11598;SDS011;5855;48.840;9.188;2023-05-23T07:24:50;25.52;;;22.83;;
11598;SDS011;5855;48.840;9.188;2023-05-23T07:27:17;26.05;;;23.27;;
11598;SDS011;5855;48.840;9.188;2023-05-23T07:29:46;24.70;;;22.23;;
11598;SDS011;5855;48.840;9.188;2023-05-23T07:32:13;25.17;;;22.35;;
11598;SDS011;5855;48.840;9.188;2023-05-23T07:34:40;23.80;;;21.20;;
11598;SDS011;5855;48.840;9.188;2023-05-23T07:37:07;24.17;;;21.67;;
11598;SDS011;5855;48.840;9.188;2023-05-23T07:39:33;25.08;;;21.38;;
11598;SDS011;5855;48.840;9.188;2023-05-23T07:42:00;22.95;;;20.65;;
11598;SDS011;5855;48.840;9.188;2023-05-23T07:44:27;24.38;;;21.65;;
11598;SDS011;5855;48.840;9.188;2023-05-23T07:46:55;25.30;;;22.45;;
11598;SDS011;5855;48.840;9.188;2023-05-23T07:49:22;23.67;;;21.17;;
11598;SDS011;5855;48.840;9.188;2023-05-23T07:51:49;25.60;;;22.80;;
11598;SDS011;5855;48.840;9.188;2023-05-23T07:54:16;23.13;;;20.75;;
11598;SDS011;5855;48.840;9.188;2023-05-23T07:56:43;24.85;;;22.33;;
11598;SDS011;5855;48.840;9.188;2023-05-23T07:59:09;23.70;;;21.20;;
11598;SDS011;5855;48.840;9.188;2023-05-23T08:01:37;23.08;;;20.73;;
11598;SDS011;5855;48.840;9.188;2023-05-23T08:04:05;23.05;;;20.85;;
11598;SDS011;5855;48.840;9.188;2023-05-23T08:06:32;23.88;;;21.52;;
11598;SDS011;5855;48.840;9.188;2023-05-23T08:08:59;24.20;;;22.05;;
11598;SDS011;5855;48.840;9.188;2023-05-23T08:11:26;23.13;;;20.73;;
11598;SDS011;5855;48.840;9.188;2023-05-23T08:13:54;21.90;;;19.80;;
11598;SDS011;5855;48.840;9.188;2023-05-23T08:16:21;22.10;;;19.90;;
11598;SDS011;5855;48.840;9.188;2023-05-23T08:18:48;23.08;;;20.77;;
11598;SDS011;5855;48.840;9.188;2023-05-23T08:21:16;22.83;;;20.45;;
11598;SDS011;5855;48.840;9.188;2023-05-23T08:23:43;22.42;;;20.15;;
11598;SDS011;5855;48.840;9.188;2023-05-23T08:26:10;21.38;;;19.25;;
11598;SDS011;5855;48.840;9.188;2023-05-23T08:28:37;21.60;;;19.40;;
11598;SDS011;5855;48.840;9.188;2023-05-23T08:31:03;20.02;;;18.02;;
11598;SDS011;5855;48.840;9.188;2023-05-23T08:33:31;20.30;;;18.35;;
11598;SDS011;5855;48.840;9.188;2023-05-23T08:35:58;21.05;;;18.90;;
11598;SDS011;5855;48.840;9.188;2023-05-23T08:38:26;20.02;;;18.15;;
11598;SDS011;5855;48.840;9.188;2023-05-23T08:40:53;19.48;;;17.50;;
11598;SDS011;5855;48.840;9.188;2023-05-23T08:43:21;18.85;;;16.88;;
11598;SDS011;5855;48.840;9.188;2023-05-23T08:45:48;18.98;;;16.98;;
11598;SDS011;5855;48.840;9.188;2023-05-23T08:48:18;18.95;;;17.05;;
11598;SDS011;5855;48.840;9.188;2023-05-23T08:50:45;18.05;;;16.25;;
11598;SDS011;5855;48.840;9.188;2023-05-23T08:53:16;17.00;;;15.50;;
11598;SDS011;5855;48.840;9.188;2023-05-23T08:55:46;16.27;;;14.57;;
11598;SDS011;5855;48.840;9.188;2023-05-23T08:58:15;17.15;;;15.57;;
11598;SDS011;5855;48.840;9.188;2023-05-23T09:00:44;17.92;;;15.88;;
11598;SDS011;5855;48.840;9.188;2023-05-23T09:03:12;19.52;;;15.15;;
11598;SDS011;5855;48.840;9.188;2023-05-23T09:05:39;16.35;;;14.25;;
11598;SDS011;5855;48.840;9.188;2023-05-23T09:08:07;17.13;;;15.38;;
11598;SDS011;5855;48.840;9.188;2023-05-23T09:10:34;15.35;;;13.88;;
11598;SDS011;5855;48.840;9.188;2023-05-23T09:13:03;15.52;;;13.93;;
11598;SDS011;5855;48.840;9.188;2023-05-23T09:15:30;16.48;;;14.73;;
11598;SDS011;5855;48.840;9.188;2023-05-23T09:17:58;17.35;;;15.45;;
11598;SDS011;5855;48.840;9.188;2023-05-23T09:20:28;15.23;;;13.75;;
11598;SDS011;5855;48.840;9.188;2023-05-23T09:22:55;15.35;;;13.88;;
11598;SDS011;5855;48.840;9.188;2023-05-23T09:25:22;16.45;;;13.50;;
11598;SDS011;5855;48.840;9.188;2023-05-23T09:27:50;17.08;;;15.02;;
11598;SDS011;5855;48.840;9.188;2023-05-23T09:30:19;16.00;;;13.88;;
11598;SDS011;5855;48.840;9.188;2023-05-23T09:32:56;16.17;;;14.68;;
11598;SDS011;5855;48.840;9.188;2023-05-23T09:35:24;15.15;;;13.55;;
11598;SDS011;5855;48.840;9.188;2023-05-23T09:37:54;15.30;;;13.80;;
11598;SDS011;5855;48.840;9.188;2023-05-23T09:40:23;15.43;;;13.57;;
11598;SDS011;5855;48.840;9.188;2023-05-23T09:42:55;14.68;;;13.38;;
11598;SDS011;5855;48.840;9.188;2023-05-23T09:45:29;14.15;;;12.88;;
11598;SDS011;5855;48.840;9.188;2023-05-23T09:47:57;14.50;;;13.20;;
11598;SDS011;5855;48.840;9.188;2023-05-23T09:50:29;14.38;;;13.00;;
11598;SDS011;5855;48.840;9.188;2023-05-23T09:52:57;12.95;;;11.75;;
11598;SDS011;5855;48.840;9.188;2023-05-23T09:55:24;14.50;;;12.65;;
11598;SDS011;5855;48.840;9.188;2023-05-23T09:57:51;14.00;;;12.48;;
11598;SDS011;5855;48.840;9.188;2023-05-23T10:00:20;13.27;;;11.98;;
11598;SDS011;5855;48.840;9.188;2023-05-23T10:03:07;13.13;;;11.82;;
11598;SDS011;5855;48.840;9.188;2023-05-23T10:05:37;13.68;;;12.27;;
11598;SDS011;5855;48.840;9.188;2023-05-23T10:08:10;13.60;;;12.20;;
11598;SDS011;5855;48.840;9.188;2023-05-23T10:13:57;12.77;;;11.57;;
11598;SDS011;5855;48.840;9.188;2023-05-23T10:16:27;12.98;;;11.68;;
11598;SDS011;5855;48.840;9.188;2023-05-23T10:19:05;13.00;;;11.23;;
11598;SDS011;5855;48.840;9.188;2023-05-23T10:21:48;12.93;;;11.68;;
11598;SDS011;5855;48.840;9.188;2023-05-23T10:24:19;12.13;;;11.02;;
11598;SDS011;5855;48.840;9.188;2023-05-23T10:26:47;13.88;;;12.48;;
11598;SDS011;5855;48.840;9.188;2023-05-23T10:29:14;12.20;;;10.40;;
11598;SDS011;5855;48.840;9.188;2023-05-23T10:31:41;11.52;;;10.50;;
11598;SDS011;5855;48.840;9.188;2023-05-23T10:34:12;10.80;;;9.90;;
11598;SDS011;5855;48.840;9.188;2023-05-23T10:36:44;10.40;;;9.50;;
11598;SDS011;5855;48.840;9.188;2023-05-23T10:39:20;10.65;;;9.65;;
11598;SDS011;5855;48.840;9.188;2023-05-23T10:41:55;8.88;;;8.07;;
11598;SDS011;5855;48.840;9.188;2023-05-23T10:44:27;8.73;;;7.93;;
11598;SDS011;5855;48.840;9.188;2023-05-23T10:46:55;10.02;;;8.70;;
11598;SDS011;5855;48.840;9.188;2023-05-23T10:49:37;7.78;;;7.00;;
11598;SDS011;5855;48.840;9.188;2023-05-23T10:52:05;8.43;;;7.72;;
11598;SDS011;5855;48.840;9.188;2023-05-23T10:54:35;9.23;;;8.32;;
11598;SDS011;5855;48.840;9.188;2023-05-23T10:57:09;8.98;;;8.10;;
11598;SDS011;5855;48.840;9.188;2023-05-23T10:59:37;9.43;;;8.30;;
11598;SDS011;5855;48.840;9.188;2023-05-23T11:02:07;8.93;;;8.07;;
11598;SDS011;5855;48.840;9.188;2023-05-23T11:04:39;8.05;;;7.25;;
11598;SDS011;5855;48.840;9.188;2023-05-23T11:07:27;8.10;;;7.30;;
11598;SDS011;5855;48.840;9.188;2023-05-23T11:10:07;7.75;;;7.03;;
11598;SDS011;5855;48.840;9.188;2023-05-23T11:12:35;7.15;;;6.38;;
11598;SDS011;5855;48.840;9.188;2023-05-23T11:15:02;7.30;;;6.28;;
11598;SDS011;5855;48.840;9.188;2023-05-23T11:17:48;7.18;;;6.57;;
11598;SDS011;5855;48.840;9.188;2023-05-23T11:20:18;6.47;;;5.88;;
11598;SDS011;5855;48.840;9.188;2023-05-23T11:22:58;6.75;;;5.70;;
11598;SDS011;5855;48.840;9.188;2023-05-23T11:25:39;6.28;;;5.78;;
11598;SDS011;5855;48.840;9.188;2023-05-23T11:28:07;6.38;;;5.85;;
11598;SDS011;5855;48.840;9.188;2023-05-23T11:30:34;8.57;;;7.78;;
11598;SDS011;5855;48.840;9.188;2023-05-23T11:33:08;8.93;;;8.02;;
11598;SDS011;5855;48.840;9.188;2023-05-23T11:35:42;10.15;;;8.45;;
11598;SDS011;5855;48.840;9.188;2023-05-23T11:38:10;9.38;;;8.25;;
11598;SDS011;5855;48.840;9.188;2023-05-23T11:40:39;10.48;;;8.40;;
11598;SDS011;5855;48.840;9.188;2023-05-23T11:43:07;9.43;;;8.55;;
11598;SDS011;5855;48.840;9.188;2023-05-23T11:45:36;9.35;;;7.70;;
11598;SDS011;5855;48.840;9.188;2023-05-23T11:48:03;9.98;;;9.07;;
11598;SDS011;5855;48.840;9.188;2023-05-23T11:50:31;8.68;;;7.75;;
11598;SDS011;5855;48.840;9.188;2023-05-23T11:53:00;8.52;;;7.72;;
11598;SDS011;5855;48.840;9.188;2023-05-23T11:55:27;8.18;;;7.40;;
11598;SDS011;5855;48.840;9.188;2023-05-23T11:57:54;10.45;;;8.32;;
11598;SDS011;5855;48.840;9.188;2023-05-23T12:00:22;9.82;;;8.07;;
11598;SDS011;5855;48.840;9.188;2023-05-23T12:02:49;8.02;;;7.22;;
11598;SDS011;5855;48.840;9.188;2023-05-23T12:05:15;7.00;;;6.50;;
11598;SDS011;5855;48.840;9.188;2023-05-23T12:07:43;7.22;;;6.65;;
11598;SDS011;5855;48.840;9.188;2023-05-23T12:10:12;8.50;;;6.13;;
11598;SDS011;5855;48.840;9.188;2023-05-23T12:12:40;7.20;;;6.60;;
11598;SDS011;5855;48.840;9.188;2023-05-23T12:15:07;9.73;;;5.97;;
11598;SDS011;5855;48.840;9.188;2023-05-23T12:17:35;7.05;;;6.45;;
11598;SDS011;5855;48.840;9.188;2023-05-23T12:20:02;6.40;;;5.47;;
11598;SDS011;5855;48.840;9.188;2023-05-23T12:22:30;7.45;;;6.43;;
11598;SDS011;5855;48.840;9.188;2023-05-23T12:24:57;7.35;;;6.43;;
11598;SDS011;5855;48.840;9.188;2023-05-23T12:27:28;8.55;;;6.18;;
11598;SDS011;5855;48.840;9.188;2023-05-23T12:30:04;7.07;;;5.50;;
11598;SDS011;5855;48.840;9.188;2023-05-23T12:32:33;5.85;;;5.30;;
11598;SDS011;5855;48.840;9.188;2023-05-23T12:35:00;7.32;;;6.07;;
11598;SDS011;5855;48.840;9.188;2023-05-23T12:37:29;7.20;;;6.10;;
11598;SDS011;5855;48.840;9.188;2023-05-23T12:39:55;5.90;;;5.30;;
11598;SDS011;5855;48.840;9.188;2023-05-23T12:42:22;5.75;;;5.25;;
11598;SDS011;5855;48.840;9.188;2023-05-23T12:44:53;6.05;;;5.45;;
11598;SDS011;5855;48.840;9.188;2023-05-23T12:47:20;7.15;;;5.95;;
11598;SDS011;5855;48.840;9.188;2023-05-23T12:49:47;6.85;;;5.38;;
11598;SDS011;5855;48.840;9.188;2023-05-23T12:52:14;6.13;;;5.20;;
11598;SDS011;5855;48.840;9.188;2023-05-23T12:54:41;5.28;;;4.85;;
11598;SDS011;5855;48.840;9.188;2023-05-23T12:57:07;4.35;;;3.90;;
11598;SDS011;5855;48.840;9.188;2023-05-23T12:59:35;7.57;;;4.97;;
11598;SDS011;5855;48.840;9.188;2023-05-23T13:02:03;5.03;;;4.60;;
11598;SDS011;5855;48.840;9.188;2023-05-23T13:04:30;3.97;;;3.67;;
11598;SDS011;5855;48.840;9.188;2023-05-23T13:06:57;4.53;;;4.18;;
11598;SDS011;5855;48.840;9.188;2023-05-23T13:09:24;4.60;;;4.20;;
11598;SDS011;5855;48.840;9.188;2023-05-23T13:11:50;4.40;;;4.00;;
11598;SDS011;5855;48.840;9.188;2023-05-23T13:14:18;4.00;;;3.70;;
11598;SDS011;5855;48.840;9.188;2023-05-23T13:16:45;3.95;;;3.65;;
11598;SDS011;5855;48.840;9.188;2023-05-23T13:19:13;4.10;;;3.70;;
11598;SDS011;5855;48.840;9.188;2023-05-23T13:21:40;3.72;;;3.30;;
11598;SDS011;5855;48.840;9.188;2023-05-23T13:24:07;4.10;;;3.67;;
11598;SDS011;5855;48.840;9.188;2023-05-23T13:26:34;3.85;;;3.45;;
11598;SDS011;5855;48.840;9.188;2023-05-23T13:29:01;4.65;;;4.25;;
11598;SDS011;5855;48.840;9.188;2023-05-23T13:31:27;5.40;;;4.32;;
11598;SDS011;5855;48.840;9.188;2023-05-23T13:33:57;4.60;;;4.20;;
11598;SDS011;5855;48.840;9.188;2023-05-23T13:36:25;4.70;;;4.32;;
11598;SDS011;5855;48.840;9.188;2023-05-23T13:38:53;4.38;;;4.00;;
11598;SDS011;5855;48.840;9.188;2023-05-23T13:41:20;3.95;;;3.65;;
11598;SDS011;5855;48.840;9.188;2023-05-23T13:43:47;4.60;;;4.20;;
11598;SDS011;5855;48.840;9.188;2023-05-23T13:46:14;3.85;;;3.55;;
11598;SDS011;5855;48.840;9.188;2023-05-23T13:48:41;5.10;;;4.60;;
11598;SDS011;5855;48.840;9.188;2023-05-23T13:51:07;4.75;;;3.80;;
11598;SDS011;5855;48.840;9.188;2023-05-23T13:53:36;3.95;;;3.65;;
11598;SDS011;5855;48.840;9.188;2023-05-23T13:56:03;5.53;;;3.80;;
11598;SDS011;5855;48.840;9.188;2023-05-23T13:58:30;3.55;;;3.25;;
11598;SDS011;5855;48.840;9.188;2023-05-23T14:00:56;3.83;;;3.53;;
11598;SDS011;5855;48.840;9.188;2023-05-23T14:03:23;4.95;;;3.88;;
11598;SDS011;5855;48.840;9.188;2023-05-23T14:05:51;3.65;;;3.17;;
11598;SDS011;5855;48.840;9.188;2023-05-23T14:08:18;3.05;;;2.80;;
11598;SDS011;5855;48.840;9.188;2023-05-23T14:10:46;3.80;;;3.50;;
11598;SDS011;5855;48.840;9.188;2023-05-23T14:13:13;3.55;;;3.25;;
11598;SDS011;5855;48.840;9.188;2023-05-23T14:15:40;6.60;;;3.50;;
11598;SDS011;5855;48.840;9.188;2023-05-23T14:18:07;5.13;;;3.30;;
11598;SDS011;5855;48.840;9.188;2023-05-23T14:20:34;4.35;;;3.10;;
11598;SDS011;5855;48.840;9.188;2023-05-23T14:23:01;3.67;;;3.35;;
11598;SDS011;5855;48.840;9.188;2023-05-23T14:25:27;3.58;;;3.28;;
11598;SDS011;5855;48.840;9.188;2023-05-23T14:27:56;4.13;;;3.08;;
11598;SDS011;5855;48.840;9.188;2023-05-23T14:30:22;3.30;;;3.00;;
11598;SDS011;5855;48.840;9.188;2023-05-23T14:32:49;3.00;;;2.80;;
11598;SDS011;5855;48.840;9.188;2023-05-23T14:35:16;3.50;;;2.65;;
11598;SDS011;5855;48.840;9.188;2023-05-23T14:37:43;3.17;;;2.90;;
11598;SDS011;5855;48.840;9.188;2023-05-23T14:40:11;4.32;;;3.00;;
11598;SDS011;5855;48.840;9.188;2023-05-23T14:42:40;2.90;;;2.70;;
11598;SDS011;5855;48.840;9.188;2023-05-23T14:45:08;3.00;;;2.80;;
11598;SDS011;5855;48.840;9.188;2023-05-23T14:47:36;2.90;;;2.70;;
11598;SDS011;5855;48.840;9.188;2023-05-23T14:50:04;2.95;;;2.70;;
11598;SDS011;5855;48.840;9.188;2023-05-23T14:52:31;2.80;;;2.60;;
11598;SDS011;5855;48.840;9.188;2023-05-23T14:54:58;4.57;;;2.60;;